sensor_id;sensor_type;location;lat;lon;timestamp;temperature;humidity
34572;DHT22;20808;48.974;8.452;2023-09-30T00:00:05;17.40;99.90
34572;DHT22;20808;48.974;8.452;2023-09-30T00:00:23;17.40;1.00
34572;DHT22;20808;48.974;8.452;2023-09-30T00:00:40;17.50;1.00
34572;DHT22;20808;48.974;8.452;2023-09-30T00:00:56;17.40;1.00
34572;DHT22;20808;48.974;8.452;2023-09-30T00:01:11;17.10;1.00
34572;DHT22;20808;48.974;8.452;2023-09-30T00:01:30;17.20;1.00
34572;DHT22;20808;48.974;8.452;2023-09-30T00:01:45;17.30;1.00
34572;DHT22;20808;48.974;8.452;2023-09-30T00:02:01;17.30;1.00
34572;DHT22;20808;48.974;8.452;2023-09-30T00:02:17;17.40;1.00
34572;DHT22;20808;48.974;8.452;2023-09-30T00:02:33;17.40;1.00
34572;DHT22;20808;48.974;8.452;2023-09-30T00:02:50;17.40;1.00
34572;DHT22;20808;48.974;8.452;2023-09-30T00:03:06;17.40;1.00
34572;DHT22;20808;48.974;8.452;2023-09-30T00:03:21;17.30;1.00
34572;DHT22;20808;48.974;8.452;2023-09-30T00:03:37;17.20;1.00
34572;DHT22;20808;48.974;8.452;2023-09-30T00:03:53;17.30;1.00
34572;DHT22;20808;48.974;8.452;2023-09-30T00:04:09;17.30;1.00
34572;DHT22;20808;48.974;8.452;2023-09-30T00:04:25;17.30;25.80
34572;DHT22;20808;48.974;8.452;2023-09-30T00:04:40;17.30;1.00
34572;DHT22;20808;48.974;8.452;2023-09-30T00:04:58;17.50;1.00
34572;DHT22;20808;48.974;8.452;2023-09-30T00:05:14;17.30;1.00
34572;DHT22;20808;48.974;8.452;2023-09-30T00:05:30;17.30;1.00
34572;DHT22;20808;48.974;8.452;2023-09-30T00:05:46;17.20;1.00
34572;DHT22;20808;48.974;8.452;2023-09-30T00:06:02;17.30;1.00
34572;DHT22;20808;48.974;8.452;2023-09-30T00:06:19;17.40;1.00
34572;DHT22;20808;48.974;8.452;2023-09-30T00:06:35;17.30;1.00
34572;DHT22;20808;48.974;8.452;2023-09-30T00:06:50;17.20;99.90
34572;DHT22;20808;48.974;8.452;2023-09-30T00:07:07;17.30;99.90
34572;DHT22;20808;48.974;8.452;2023-09-30T00:07:23;17.50;99.90
34572;DHT22;20808;48.974;8.452;2023-09-30T00:07:39;17.40;7.50
34572;DHT22;20808;48.974;8.452;2023-09-30T00:07:54;17.40;1.00
34572;DHT22;20808;48.974;8.452;2023-09-30T00:08:10;17.50;1.00
34572;DHT22;20808;48.974;8.452;2023-09-30T00:08:26;17.50;1.00
34572;DHT22;20808;48.974;8.452;2023-09-30T00:08:42;17.60;1.00
34572;DHT22;20808;48.974;8.452;2023-09-30T00:09:00;17.70;1.00
34572;DHT22;20808;48.974;8.452;2023-09-30T00:09:15;17.60;1.00
34572;DHT22;20808;48.974;8.452;2023-09-30T00:09:31;17.60;1.00
34572;DHT22;20808;48.974;8.452;2023-09-30T00:09:47;17.50;1.00
34572;DHT22;20808;48.974;8.452;2023-09-30T00:10:03;17.20;1.00
34572;DHT22;20808;48.974;8.452;2023-09-30T00:10:19;17.50;1.00
34572;DHT22;20808;48.974;8.452;2023-09-30T00:10:35;17.50;1.00
34572;DHT22;20808;48.974;8.452;2023-09-30T00:10:51;17.50;1.00
34572;DHT22;20808;48.974;8.452;2023-09-30T00:11:10;17.50;1.00
34572;DHT22;20808;48.974;8.452;2023-09-30T00:11:26;17.40;1.00
34572;DHT22;20808;48.974;8.452;2023-09-30T00:11:42;17.50;1.00
34572;DHT22;20808;48.974;8.452;2023-09-30T00:11:57;17.60;1.00
34572;DHT22;20808;48.974;8.452;2023-09-30T00:12:13;17.40;1.00
34572;DHT22;20808;48.974;8.452;2023-09-30T00:12:30;17.50;1.00
34572;DHT22;20808;48.974;8.452;2023-09-30T00:12:46;17.40;1.00
34572;DHT22;20808;48.974;8.452;2023-09-30T00:13:02;17.40;1.00
34572;DHT22;20808;48.974;8.452;2023-09-30T00:13:17;17.50;1.00
34572;DHT22;20808;48.974;8.452;2023-09-30T00:13:33;17.40;1.00
34572;DHT22;20808;48.974;8.452;2023-09-30T00:13:49;17.20;1.00
34572;DHT22;20808;48.974;8.452;2023-09-30T00:14:05;17.40;1.00
34572;DHT22;20808;48.974;8.452;2023-09-30T00:14:21;17.40;1.00
34572;DHT22;20808;48.974;8.452;2023-09-30T00:14:38;17.40;1.00
34572;DHT22;20808;48.974;8.452;2023-09-30T00:14:54;17.30;1.00
34572;DHT22;20808;48.974;8.452;2023-09-30T00:15:10;17.40;1.00
34572;DHT22;20808;48.974;8.452;2023-09-30T00:15:26;17.30;99.90
34572;DHT22;20808;48.974;8.452;2023-09-30T00:15:42;17.30;99.90
34572;DHT22;20808;48.974;8.452;2023-09-30T00:15:57;17.20;99.90
34572;DHT22;20808;48.974;8.452;2023-09-30T00:16:13;17.30;99.90
34572;DHT22;20808;48.974;8.452;2023-09-30T00:16:32;17.40;99.90
34572;DHT22;20808;48.974;8.452;2023-09-30T00:16:48;17.10;1.00
34572;DHT22;20808;48.974;8.452;2023-09-30T00:17:04;17.20;1.00
34572;DHT22;20808;48.974;8.452;2023-09-30T00:17:20;17.20;1.00
34572;DHT22;20808;48.974;8.452;2023-09-30T00:17:36;17.20;1.00
34572;DHT22;20808;48.974;8.452;2023-09-30T00:17:52;17.20;1.00
34572;DHT22;20808;48.974;8.452;2023-09-30T00:18:09;17.20;1.00
34572;DHT22;20808;48.974;8.452;2023-09-30T00:18:25;17.10;1.00
34572;DHT22;20808;48.974;8.452;2023-09-30T00:18:40;17.10;23.80
34572;DHT22;20808;48.974;8.452;2023-09-30T00:18:56;17.20;99.90
34572;DHT22;20808;48.974;8.452;2023-09-30T00:19:13;17.10;99.90
34572;DHT22;20808;48.974;8.452;2023-09-30T00:19:29;17.00;99.90
34572;DHT22;20808;48.974;8.452;2023-09-30T00:19:47;17.20;99.90
34572;DHT22;20808;48.974;8.452;2023-09-30T00:20:06;17.30;99.90
34572;DHT22;20808;48.974;8.452;2023-09-30T00:20:24;17.20;99.90
34572;DHT22;20808;48.974;8.452;2023-09-30T00:20:39;17.20;99.90
34572;DHT22;20808;48.974;8.452;2023-09-30T00:20:55;17.20;99.90
34572;DHT22;20808;48.974;8.452;2023-09-30T00:21:13;16.90;99.90
34572;DHT22;20808;48.974;8.452;2023-09-30T00:21:30;17.30;99.90
34572;DHT22;20808;48.974;8.452;2023-09-30T00:21:46;17.20;99.90
34572;DHT22;20808;48.974;8.452;2023-09-30T00:22:02;17.00;99.90
34572;DHT22;20808;48.974;8.452;2023-09-30T00:22:19;17.30;99.90
34572;DHT22;20808;48.974;8.452;2023-09-30T00:22:34;17.00;99.90
34572;DHT22;20808;48.974;8.452;2023-09-30T00:22:50;17.10;99.90
34572;DHT22;20808;48.974;8.452;2023-09-30T00:23:06;17.40;99.90
34572;DHT22;20808;48.974;8.452;2023-09-30T00:23:22;17.20;42.70
34572;DHT22;20808;48.974;8.452;2023-09-30T00:23:38;17.20;99.90
34572;DHT22;20808;48.974;8.452;2023-09-30T00:23:55;17.00;99.90
34572;DHT22;20808;48.974;8.452;2023-09-30T00:24:10;17.40;99.90
34572;DHT22;20808;48.974;8.452;2023-09-30T00:24:26;17.10;99.90
34572;DHT22;20808;48.974;8.452;2023-09-30T00:24:42;17.20;96.90
34572;DHT22;20808;48.974;8.452;2023-09-30T00:24:58;17.10;99.90
34572;DHT22;20808;48.974;8.452;2023-09-30T00:25:14;17.30;99.90
34572;DHT22;20808;48.974;8.452;2023-09-30T00:25:29;17.30;25.60
34572;DHT22;20808;48.974;8.452;2023-09-30T00:25:47;17.20;37.30
34572;DHT22;20808;48.974;8.452;2023-09-30T00:26:04;17.20;99.90
34572;DHT22;20808;48.974;8.452;2023-09-30T00:26:20;17.20;40.60
34572;DHT22;20808;48.974;8.452;2023-09-30T00:26:37;17.00;31.70
34572;DHT22;20808;48.974;8.452;2023-09-30T00:26:53;17.30;2.50
34572;DHT22;20808;48.974;8.452;2023-09-30T00:27:09;17.30;1.00
34572;DHT22;20808;48.974;8.452;2023-09-30T00:27:25;17.20;24.50
34572;DHT22;20808;48.974;8.452;2023-09-30T00:27:41;17.00;41.40
34572;DHT22;20808;48.974;8.452;2023-09-30T00:27:58;17.30;1.00
34572;DHT22;20808;48.974;8.452;2023-09-30T00:28:13;17.40;1.00
34572;DHT22;20808;48.974;8.452;2023-09-30T00:28:30;17.40;1.00
34572;DHT22;20808;48.974;8.452;2023-09-30T00:28:45;17.20;1.00
34572;DHT22;20808;48.974;8.452;2023-09-30T00:29:01;17.30;1.00
34572;DHT22;20808;48.974;8.452;2023-09-30T00:29:20;17.20;1.00
34572;DHT22;20808;48.974;8.452;2023-09-30T00:29:36;17.10;1.00
34572;DHT22;20808;48.974;8.452;2023-09-30T00:29:52;17.00;1.00
34572;DHT22;20808;48.974;8.452;2023-09-30T00:30:09;17.20;1.00
34572;DHT22;20808;48.974;8.452;2023-09-30T00:30:25;17.30;1.00
34572;DHT22;20808;48.974;8.452;2023-09-30T00:30:40;17.30;1.00
34572;DHT22;20808;48.974;8.452;2023-09-30T00:30:56;17.20;1.00
34572;DHT22;20808;48.974;8.452;2023-09-30T00:31:12;17.20;1.00
34572;DHT22;20808;48.974;8.452;2023-09-30T00:31:28;17.20;1.00
34572;DHT22;20808;48.974;8.452;2023-09-30T00:31:44;17.10;1.00
34572;DHT22;20808;48.974;8.452;2023-09-30T00:32:00;17.20;1.00
34572;DHT22;20808;48.974;8.452;2023-09-30T00:32:16;17.00;1.00
34572;DHT22;20808;48.974;8.452;2023-09-30T00:32:32;17.40;1.00
34572;DHT22;20808;48.974;8.452;2023-09-30T00:32:48;17.20;1.00
34572;DHT22;20808;48.974;8.452;2023-09-30T00:33:04;17.40;1.00
34572;DHT22;20808;48.974;8.452;2023-09-30T00:33:20;17.30;1.00
34572;DHT22;20808;48.974;8.452;2023-09-30T00:33:37;17.30;1.00
34572;DHT22;20808;48.974;8.452;2023-09-30T00:33:53;17.10;1.00
34572;DHT22;20808;48.974;8.452;2023-09-30T00:34:10;17.20;1.00
34572;DHT22;20808;48.974;8.452;2023-09-30T00:34:26;17.50;1.00
34572;DHT22;20808;48.974;8.452;2023-09-30T00:34:41;17.30;1.00
34572;DHT22;20808;48.974;8.452;2023-09-30T00:34:58;17.20;1.00
34572;DHT22;20808;48.974;8.452;2023-09-30T00:35:15;17.30;1.00
34572;DHT22;20808;48.974;8.452;2023-09-30T00:35:32;17.30;1.00
34572;DHT22;20808;48.974;8.452;2023-09-30T00:35:47;17.40;1.00
34572;DHT22;20808;48.974;8.452;2023-09-30T00:36:07;17.20;1.00
34572;DHT22;20808;48.974;8.452;2023-09-30T00:36:22;17.20;1.00
34572;DHT22;20808;48.974;8.452;2023-09-30T00:36:39;17.40;1.00
34572;DHT22;20808;48.974;8.452;2023-09-30T00:36:55;17.30;1.00
34572;DHT22;20808;48.974;8.452;2023-09-30T00:37:11;17.10;1.00
34572;DHT22;20808;48.974;8.452;2023-09-30T00:37:27;17.10;1.00
34572;DHT22;20808;48.974;8.452;2023-09-30T00:37:43;17.20;13.00
34572;DHT22;20808;48.974;8.452;2023-09-30T00:37:59;17.20;1.00
34572;DHT22;20808;48.974;8.452;2023-09-30T00:38:16;17.30;24.10
34572;DHT22;20808;48.974;8.452;2023-09-30T00:38:32;17.20;99.90
34572;DHT22;20808;48.974;8.452;2023-09-30T00:38:48;17.10;99.90
34572;DHT22;20808;48.974;8.452;2023-09-30T00:39:04;17.00;99.90
34572;DHT22;20808;48.974;8.452;2023-09-30T00:39:20;17.20;99.90
34572;DHT22;20808;48.974;8.452;2023-09-30T00:39:35;17.20;99.90
34572;DHT22;20808;48.974;8.452;2023-09-30T00:39:52;17.30;99.90
34572;DHT22;20808;48.974;8.452;2023-09-30T00:40:11;17.10;99.90
34572;DHT22;20808;48.974;8.452;2023-09-30T00:40:27;17.20;99.90
34572;DHT22;20808;48.974;8.452;2023-09-30T00:40:47;17.00;99.90
34572;DHT22;20808;48.974;8.452;2023-09-30T00:41:03;17.20;1.00
34572;DHT22;20808;48.974;8.452;2023-09-30T00:41:19;17.20;1.00
34572;DHT22;20808;48.974;8.452;2023-09-30T00:41:35;17.10;1.00
34572;DHT22;20808;48.974;8.452;2023-09-30T00:41:50;17.30;1.00
34572;DHT22;20808;48.974;8.452;2023-09-30T00:42:06;16.80;1.00
34572;DHT22;20808;48.974;8.452;2023-09-30T00:42:23;17.10;1.00
34572;DHT22;20808;48.974;8.452;2023-09-30T00:42:40;16.90;1.00
34572;DHT22;20808;48.974;8.452;2023-09-30T00:42:56;17.00;1.00
34572;DHT22;20808;48.974;8.452;2023-09-30T00:43:18;16.90;1.00
34572;DHT22;20808;48.974;8.452;2023-09-30T00:43:34;17.10;1.00
34572;DHT22;20808;48.974;8.452;2023-09-30T00:43:49;17.10;1.00
34572;DHT22;20808;48.974;8.452;2023-09-30T00:44:05;16.90;1.00
34572;DHT22;20808;48.974;8.452;2023-09-30T00:44:23;17.10;1.00
34572;DHT22;20808;48.974;8.452;2023-09-30T00:44:39;17.00;1.00
34572;DHT22;20808;48.974;8.452;2023-09-30T00:44:54;17.00;1.00
34572;DHT22;20808;48.974;8.452;2023-09-30T00:45:11;16.90;1.00
34572;DHT22;20808;48.974;8.452;2023-09-30T00:45:27;17.10;1.00
34572;DHT22;20808;48.974;8.452;2023-09-30T00:45:43;17.00;1.00
34572;DHT22;20808;48.974;8.452;2023-09-30T00:46:06;17.10;1.00
34572;DHT22;20808;48.974;8.452;2023-09-30T00:46:30;17.10;1.00
34572;DHT22;20808;48.974;8.452;2023-09-30T00:46:46;17.00;1.00
34572;DHT22;20808;48.974;8.452;2023-09-30T00:47:02;17.00;1.00
34572;DHT22;20808;48.974;8.452;2023-09-30T00:47:18;17.30;1.00
34572;DHT22;20808;48.974;8.452;2023-09-30T00:47:36;17.10;1.00
34572;DHT22;20808;48.974;8.452;2023-09-30T00:47:52;17.20;1.00
34572;DHT22;20808;48.974;8.452;2023-09-30T00:48:09;17.20;1.00
34572;DHT22;20808;48.974;8.452;2023-09-30T00:48:25;17.20;1.00
34572;DHT22;20808;48.974;8.452;2023-09-30T00:48:42;17.20;1.00
34572;DHT22;20808;48.974;8.452;2023-09-30T00:48:59;17.00;1.00
34572;DHT22;20808;48.974;8.452;2023-09-30T00:49:15;17.00;1.00
34572;DHT22;20808;48.974;8.452;2023-09-30T00:49:33;17.40;1.00
34572;DHT22;20808;48.974;8.452;2023-09-30T00:49:49;17.10;1.00
34572;DHT22;20808;48.974;8.452;2023-09-30T00:50:06;17.10;1.00
34572;DHT22;20808;48.974;8.452;2023-09-30T00:50:25;17.10;1.00
34572;DHT22;20808;48.974;8.452;2023-09-30T00:50:42;17.00;1.00
34572;DHT22;20808;48.974;8.452;2023-09-30T00:50:58;17.20;1.00
34572;DHT22;20808;48.974;8.452;2023-09-30T00:51:14;17.20;1.00
34572;DHT22;20808;48.974;8.452;2023-09-30T00:51:31;17.00;1.00
34572;DHT22;20808;48.974;8.452;2023-09-30T00:51:47;17.10;1.00
34572;DHT22;20808;48.974;8.452;2023-09-30T00:52:04;16.90;1.00
34572;DHT22;20808;48.974;8.452;2023-09-30T00:52:21;17.10;1.00
34572;DHT22;20808;48.974;8.452;2023-09-30T00:52:38;16.90;1.00
34572;DHT22;20808;48.974;8.452;2023-09-30T00:52:54;16.90;1.00
34572;DHT22;20808;48.974;8.452;2023-09-30T00:53:11;17.00;1.00
34572;DHT22;20808;48.974;8.452;2023-09-30T00:53:27;16.90;1.00
34572;DHT22;20808;48.974;8.452;2023-09-30T00:53:44;16.90;1.00
34572;DHT22;20808;48.974;8.452;2023-09-30T00:54:01;16.90;1.00
34572;DHT22;20808;48.974;8.452;2023-09-30T00:54:17;17.00;18.90
34572;DHT22;20808;48.974;8.452;2023-09-30T00:54:34;16.90;67.50
34572;DHT22;20808;48.974;8.452;2023-09-30T00:54:51;17.00;99.90
34572;DHT22;20808;48.974;8.452;2023-09-30T00:55:08;17.00;99.90
34572;DHT22;20808;48.974;8.452;2023-09-30T00:55:24;17.00;61.80
34572;DHT22;20808;48.974;8.452;2023-09-30T00:55:41;16.90;56.30
34572;DHT22;20808;48.974;8.452;2023-09-30T00:55:57;17.00;37.10
34572;DHT22;20808;48.974;8.452;2023-09-30T00:56:14;17.10;99.90
34572;DHT22;20808;48.974;8.452;2023-09-30T00:56:30;17.00;99.90
34572;DHT22;20808;48.974;8.452;2023-09-30T00:56:47;16.70;99.90
34572;DHT22;20808;48.974;8.452;2023-09-30T00:57:04;17.00;99.90
34572;DHT22;20808;48.974;8.452;2023-09-30T00:57:20;17.00;99.90
34572;DHT22;20808;48.974;8.452;2023-09-30T00:57:37;16.90;66.60
34572;DHT22;20808;48.974;8.452;2023-09-30T00:57:54;17.10;1.00
34572;DHT22;20808;48.974;8.452;2023-09-30T00:58:10;16.90;1.00
34572;DHT22;20808;48.974;8.452;2023-09-30T00:58:26;16.90;1.00
34572;DHT22;20808;48.974;8.452;2023-09-30T00:58:45;16.80;1.00
34572;DHT22;20808;48.974;8.452;2023-09-30T00:59:03;17.10;1.00
34572;DHT22;20808;48.974;8.452;2023-09-30T00:59:19;17.10;1.00
34572;DHT22;20808;48.974;8.452;2023-09-30T00:59:35;17.00;1.00
34572;DHT22;20808;48.974;8.452;2023-09-30T00:59:52;16.90;1.00
34572;DHT22;20808;48.974;8.452;2023-09-30T01:00:09;16.70;1.00
34572;DHT22;20808;48.974;8.452;2023-09-30T01:00:27;16.80;1.00
34572;DHT22;20808;48.974;8.452;2023-09-30T01:00:43;16.80;46.20
34572;DHT22;20808;48.974;8.452;2023-09-30T01:01:00;16.90;58.00
34572;DHT22;20808;48.974;8.452;2023-09-30T01:01:16;16.90;53.90
34572;DHT22;20808;48.974;8.452;2023-09-30T01:01:31;16.70;66.10
34572;DHT22;20808;48.974;8.452;2023-09-30T01:01:49;16.80;60.90
34572;DHT22;20808;48.974;8.452;2023-09-30T01:02:04;16.60;94.50
34572;DHT22;20808;48.974;8.452;2023-09-30T01:02:21;16.50;90.60
34572;DHT22;20808;48.974;8.452;2023-09-30T01:02:38;16.70;99.30
34572;DHT22;20808;48.974;8.452;2023-09-30T01:02:54;16.70;99.90
34572;DHT22;20808;48.974;8.452;2023-09-30T01:03:11;16.70;99.90
34572;DHT22;20808;48.974;8.452;2023-09-30T01:03:27;16.70;99.90
34572;DHT22;20808;48.974;8.452;2023-09-30T01:03:43;16.70;99.90
34572;DHT22;20808;48.974;8.452;2023-09-30T01:04:00;16.60;99.90
34572;DHT22;20808;48.974;8.452;2023-09-30T01:04:16;16.40;99.90
34572;DHT22;20808;48.974;8.452;2023-09-30T01:04:33;16.40;1.00
34572;DHT22;20808;48.974;8.452;2023-09-30T01:04:49;16.40;1.00
34572;DHT22;20808;48.974;8.452;2023-09-30T01:05:05;16.60;1.00
34572;DHT22;20808;48.974;8.452;2023-09-30T01:05:23;16.70;1.00
34572;DHT22;20808;48.974;8.452;2023-09-30T01:05:41;16.50;1.00
34572;DHT22;20808;48.974;8.452;2023-09-30T01:05:58;16.60;1.00
34572;DHT22;20808;48.974;8.452;2023-09-30T01:06:14;16.60;1.00
34572;DHT22;20808;48.974;8.452;2023-09-30T01:06:30;16.50;1.00
34572;DHT22;20808;48.974;8.452;2023-09-30T01:06:46;16.60;1.00
34572;DHT22;20808;48.974;8.452;2023-09-30T01:07:03;16.70;1.00
34572;DHT22;20808;48.974;8.452;2023-09-30T01:07:19;16.50;1.00
34572;DHT22;20808;48.974;8.452;2023-09-30T01:07:37;16.40;1.00
34572;DHT22;20808;48.974;8.452;2023-09-30T01:07:53;16.60;1.00
34572;DHT22;20808;48.974;8.452;2023-09-30T01:08:09;16.40;1.00
34572;DHT22;20808;48.974;8.452;2023-09-30T01:08:26;16.30;1.00
34572;DHT22;20808;48.974;8.452;2023-09-30T01:08:42;16.60;1.00
34572;DHT22;20808;48.974;8.452;2023-09-30T01:08:59;16.20;1.00
34572;DHT22;20808;48.974;8.452;2023-09-30T01:09:14;16.40;1.00
34572;DHT22;20808;48.974;8.452;2023-09-30T01:09:30;16.20;1.00
34572;DHT22;20808;48.974;8.452;2023-09-30T01:09:46;16.40;1.00
34572;DHT22;20808;48.974;8.452;2023-09-30T01:10:03;16.20;1.00
34572;DHT22;20808;48.974;8.452;2023-09-30T01:10:20;16.40;1.00
34572;DHT22;20808;48.974;8.452;2023-09-30T01:10:36;16.20;1.00
34572;DHT22;20808;48.974;8.452;2023-09-30T01:10:51;16.20;1.00
34572;DHT22;20808;48.974;8.452;2023-09-30T01:11:07;16.20;1.00
34572;DHT22;20808;48.974;8.452;2023-09-30T01:11:24;16.20;1.00
34572;DHT22;20808;48.974;8.452;2023-09-30T01:11:42;16.00;1.00
34572;DHT22;20808;48.974;8.452;2023-09-30T01:11:57;16.10;1.00
34572;DHT22;20808;48.974;8.452;2023-09-30T01:12:13;16.40;1.00
34572;DHT22;20808;48.974;8.452;2023-09-30T01:12:29;16.60;1.00
34572;DHT22;20808;48.974;8.452;2023-09-30T01:12:45;16.50;1.00
34572;DHT22;20808;48.974;8.452;2023-09-30T01:13:02;16.40;1.00
34572;DHT22;20808;48.974;8.452;2023-09-30T01:13:18;16.30;1.00
34572;DHT22;20808;48.974;8.452;2023-09-30T01:13:35;16.40;1.00
34572;DHT22;20808;48.974;8.452;2023-09-30T01:13:51;16.30;1.00
34572;DHT22;20808;48.974;8.452;2023-09-30T01:14:25;16.30;1.00
34572;DHT22;20808;48.974;8.452;2023-09-30T01:14:41;16.20;1.00
34572;DHT22;20808;48.974;8.452;2023-09-30T01:14:58;16.40;1.00
34572;DHT22;20808;48.974;8.452;2023-09-30T01:15:14;16.30;1.00
34572;DHT22;20808;48.974;8.452;2023-09-30T01:15:31;16.50;1.00
34572;DHT22;20808;48.974;8.452;2023-09-30T01:15:47;16.50;1.00
34572;DHT22;20808;48.974;8.452;2023-09-30T01:16:03;16.50;1.00
34572;DHT22;20808;48.974;8.452;2023-09-30T01:16:20;16.50;1.00
34572;DHT22;20808;48.974;8.452;2023-09-30T01:16:35;16.20;1.00
34572;DHT22;20808;48.974;8.452;2023-09-30T01:16:51;16.40;1.00
34572;DHT22;20808;48.974;8.452;2023-09-30T01:17:07;16.40;1.00
34572;DHT22;20808;48.974;8.452;2023-09-30T01:17:25;16.30;1.00
34572;DHT22;20808;48.974;8.452;2023-09-30T01:17:40;16.40;1.00
34572;DHT22;20808;48.974;8.452;2023-09-30T01:17:56;16.40;1.00
34572;DHT22;20808;48.974;8.452;2023-09-30T01:18:13;16.40;1.00
34572;DHT22;20808;48.974;8.452;2023-09-30T01:18:29;16.30;1.00
34572;DHT22;20808;48.974;8.452;2023-09-30T01:18:45;16.30;1.00
34572;DHT22;20808;48.974;8.452;2023-09-30T01:19:01;16.50;1.00
34572;DHT22;20808;48.974;8.452;2023-09-30T01:19:18;16.60;1.00
34572;DHT22;20808;48.974;8.452;2023-09-30T01:19:34;16.30;1.00
34572;DHT22;20808;48.974;8.452;2023-09-30T01:19:49;16.20;1.00
34572;DHT22;20808;48.974;8.452;2023-09-30T01:20:08;16.10;1.00
34572;DHT22;20808;48.974;8.452;2023-09-30T01:20:27;16.50;1.00
34572;DHT22;20808;48.974;8.452;2023-09-30T01:20:44;16.50;1.00
34572;DHT22;20808;48.974;8.452;2023-09-30T01:21:03;16.30;1.00
34572;DHT22;20808;48.974;8.452;2023-09-30T01:21:20;16.20;1.00
34572;DHT22;20808;48.974;8.452;2023-09-30T01:21:37;16.50;1.00
34572;DHT22;20808;48.974;8.452;2023-09-30T01:21:53;16.10;1.00
34572;DHT22;20808;48.974;8.452;2023-09-30T01:22:10;16.20;1.00
34572;DHT22;20808;48.974;8.452;2023-09-30T01:22:26;16.10;1.00
34572;DHT22;20808;48.974;8.452;2023-09-30T01:22:45;16.20;1.00
34572;DHT22;20808;48.974;8.452;2023-09-30T01:23:02;16.30;1.00
34572;DHT22;20808;48.974;8.452;2023-09-30T01:23:18;16.20;1.00
34572;DHT22;20808;48.974;8.452;2023-09-30T01:23:35;16.30;1.00
34572;DHT22;20808;48.974;8.452;2023-09-30T01:23:51;16.20;1.00
34572;DHT22;20808;48.974;8.452;2023-09-30T01:24:07;16.20;1.00
34572;DHT22;20808;48.974;8.452;2023-09-30T01:24:23;16.10;1.00
34572;DHT22;20808;48.974;8.452;2023-09-30T01:24:41;16.10;1.00
34572;DHT22;20808;48.974;8.452;2023-09-30T01:24:57;16.10;1.00
34572;DHT22;20808;48.974;8.452;2023-09-30T01:25:12;16.20;1.00
34572;DHT22;20808;48.974;8.452;2023-09-30T01:25:28;16.10;1.00
34572;DHT22;20808;48.974;8.452;2023-09-30T01:25:44;16.00;1.00
34572;DHT22;20808;48.974;8.452;2023-09-30T01:26:01;15.90;1.00
34572;DHT22;20808;48.974;8.452;2023-09-30T01:26:18;16.10;1.00
34572;DHT22;20808;48.974;8.452;2023-09-30T01:26:34;16.00;1.00
34572;DHT22;20808;48.974;8.452;2023-09-30T01:26:50;16.10;1.00
34572;DHT22;20808;48.974;8.452;2023-09-30T01:27:06;16.10;1.00
34572;DHT22;20808;48.974;8.452;2023-09-30T01:27:22;16.20;1.00
34572;DHT22;20808;48.974;8.452;2023-09-30T01:27:38;16.10;1.00
34572;DHT22;20808;48.974;8.452;2023-09-30T01:27:54;16.00;1.00
34572;DHT22;20808;48.974;8.452;2023-09-30T01:28:10;15.90;1.00
34572;DHT22;20808;48.974;8.452;2023-09-30T01:28:26;15.90;1.00
34572;DHT22;20808;48.974;8.452;2023-09-30T01:28:42;15.80;1.00
34572;DHT22;20808;48.974;8.452;2023-09-30T01:28:58;16.00;1.00
34572;DHT22;20808;48.974;8.452;2023-09-30T01:29:13;16.00;1.00
34572;DHT22;20808;48.974;8.452;2023-09-30T01:29:29;16.00;1.00
34572;DHT22;20808;48.974;8.452;2023-09-30T01:29:45;15.90;1.00
34572;DHT22;20808;48.974;8.452;2023-09-30T01:30:00;15.90;1.00
34572;DHT22;20808;48.974;8.452;2023-09-30T01:30:18;15.70;1.00
34572;DHT22;20808;48.974;8.452;2023-09-30T01:30:34;16.00;1.00
34572;DHT22;20808;48.974;8.452;2023-09-30T01:30:49;16.10;1.00
34572;DHT22;20808;48.974;8.452;2023-09-30T01:31:06;15.80;1.00
34572;DHT22;20808;48.974;8.452;2023-09-30T01:31:22;15.90;1.00
34572;DHT22;20808;48.974;8.452;2023-09-30T01:31:38;15.80;1.00
34572;DHT22;20808;48.974;8.452;2023-09-30T01:31:54;15.90;1.00
34572;DHT22;20808;48.974;8.452;2023-09-30T01:32:11;15.90;1.00
34572;DHT22;20808;48.974;8.452;2023-09-30T01:32:29;15.80;1.00
34572;DHT22;20808;48.974;8.452;2023-09-30T01:32:45;15.80;1.00
34572;DHT22;20808;48.974;8.452;2023-09-30T01:33:01;15.70;1.00
34572;DHT22;20808;48.974;8.452;2023-09-30T01:33:17;15.80;1.00
34572;DHT22;20808;48.974;8.452;2023-09-30T01:33:32;16.00;1.00
34572;DHT22;20808;48.974;8.452;2023-09-30T01:33:48;15.70;1.00
34572;DHT22;20808;48.974;8.452;2023-09-30T01:34:04;16.10;1.00
34572;DHT22;20808;48.974;8.452;2023-09-30T01:34:20;15.80;1.00
34572;DHT22;20808;48.974;8.452;2023-09-30T01:34:37;15.90;1.00
34572;DHT22;20808;48.974;8.452;2023-09-30T01:34:53;15.90;1.00
34572;DHT22;20808;48.974;8.452;2023-09-30T01:35:09;15.90;1.00
34572;DHT22;20808;48.974;8.452;2023-09-30T01:35:25;16.00;1.00
34572;DHT22;20808;48.974;8.452;2023-09-30T01:35:41;15.80;1.00
34572;DHT22;20808;48.974;8.452;2023-09-30T01:35:56;15.70;1.00
34572;DHT22;20808;48.974;8.452;2023-09-30T01:36:12;15.90;1.00
34572;DHT22;20808;48.974;8.452;2023-09-30T01:36:29;16.10;1.00
34572;DHT22;20808;48.974;8.452;2023-09-30T01:36:46;16.10;1.00
34572;DHT22;20808;48.974;8.452;2023-09-30T01:37:02;15.90;1.00
34572;DHT22;20808;48.974;8.452;2023-09-30T01:37:18;16.00;1.00
34572;DHT22;20808;48.974;8.452;2023-09-30T01:37:34;15.90;1.00
34572;DHT22;20808;48.974;8.452;2023-09-30T01:37:50;16.00;1.00
34572;DHT22;20808;48.974;8.452;2023-09-30T01:38:05;16.00;1.00
34572;DHT22;20808;48.974;8.452;2023-09-30T01:38:22;15.90;1.00
34572;DHT22;20808;48.974;8.452;2023-09-30T01:38:37;15.80;1.00
34572;DHT22;20808;48.974;8.452;2023-09-30T01:38:54;16.00;1.00
34572;DHT22;20808;48.974;8.452;2023-09-30T01:39:10;16.00;1.00
34572;DHT22;20808;48.974;8.452;2023-09-30T01:39:26;16.00;1.00
34572;DHT22;20808;48.974;8.452;2023-09-30T01:39:42;16.00;1.00
34572;DHT22;20808;48.974;8.452;2023-09-30T01:39:59;16.00;1.00
34572;DHT22;20808;48.974;8.452;2023-09-30T01:40:15;15.90;1.00
34572;DHT22;20808;48.974;8.452;2023-09-30T01:40:33;16.10;1.00
34572;DHT22;20808;48.974;8.452;2023-09-30T01:40:50;16.00;1.00
34572;DHT22;20808;48.974;8.452;2023-09-30T01:41:06;16.00;1.00
34572;DHT22;20808;48.974;8.452;2023-09-30T01:41:21;16.10;1.00
34572;DHT22;20808;48.974;8.452;2023-09-30T01:41:37;15.90;1.00
34572;DHT22;20808;48.974;8.452;2023-09-30T01:41:53;16.00;1.00
34572;DHT22;20808;48.974;8.452;2023-09-30T01:42:09;16.20;1.00
34572;DHT22;20808;48.974;8.452;2023-09-30T01:42:26;16.00;1.00
34572;DHT22;20808;48.974;8.452;2023-09-30T01:42:42;15.90;1.00
34572;DHT22;20808;48.974;8.452;2023-09-30T01:42:58;16.00;1.00
34572;DHT22;20808;48.974;8.452;2023-09-30T01:43:14;16.10;1.00
34572;DHT22;20808;48.974;8.452;2023-09-30T01:43:30;15.70;1.00
34572;DHT22;20808;48.974;8.452;2023-09-30T01:43:46;15.90;1.00
34572;DHT22;20808;48.974;8.452;2023-09-30T01:44:02;16.10;1.00
34572;DHT22;20808;48.974;8.452;2023-09-30T01:44:18;16.10;1.00
34572;DHT22;20808;48.974;8.452;2023-09-30T01:44:35;16.00;1.00
34572;DHT22;20808;48.974;8.452;2023-09-30T01:44:50;16.00;1.00
34572;DHT22;20808;48.974;8.452;2023-09-30T01:45:07;16.00;1.00